createdAt,value
2022-10-09T00:01:13.000Z,1018.5
2022-10-09T00:02:29.000Z,1018.5
2022-10-09T00:03:45.000Z,1018.6
2022-10-09T00:06:18.000Z,1018.5
2022-10-09T00:07:34.000Z,1018.5
2022-10-09T00:08:51.000Z,1018.5
2022-10-09T00:10:07.000Z,1018.5
2022-10-09T00:11:23.000Z,1018.5
2022-10-09T00:12:40.000Z,1018.5
2022-10-09T00:13:56.000Z,1018.5
2022-10-09T00:15:12.000Z,1018.5
2022-10-09T00:16:28.000Z,1018.5
2022-10-09T00:19:01.000Z,1018.5
2022-10-09T00:20:17.000Z,1018.6
2022-10-09T00:21:34.000Z,1018.5
2022-10-09T00:22:50.000Z,1018.6
2022-10-09T00:24:06.000Z,1018.6
2022-10-09T00:25:22.000Z,1018.6
2022-10-09T00:26:39.000Z,1018.6
2022-10-09T00:27:54.000Z,1018.6
2022-10-09T00:29:10.000Z,1018.6
2022-10-09T00:30:27.000Z,1018.6
2022-10-09T00:31:43.000Z,1018.5
2022-10-09T00:32:58.000Z,1018.6
2022-10-09T00:34:13.000Z,1018.6
2022-10-09T00:35:30.000Z,1018.6
2022-10-09T00:36:46.000Z,1018.6
2022-10-09T00:38:02.000Z,1018.6
2022-10-09T00:40:35.000Z,1018.6
2022-10-09T00:41:51.000Z,1018.6
2022-10-09T00:44:24.000Z,1018.6
2022-10-09T00:45:40.000Z,1018.7
2022-10-09T00:46:56.000Z,1018.7
2022-10-09T00:48:13.000Z,1018.7
2022-10-09T00:50:44.000Z,1018.7
2022-10-09T00:52:00.000Z,1018.7
2022-10-09T00:53:15.000Z,1018.7
2022-10-09T00:54:31.000Z,1018.7
2022-10-09T00:57:04.000Z,1018.7
2022-10-09T00:58:20.000Z,1018.7
2022-10-09T00:59:36.000Z,1018.7
2022-10-09T01:00:53.000Z,1018.7
2022-10-09T01:02:09.000Z,1018.7
2022-10-09T01:03:25.000Z,1018.7
2022-10-09T01:05:58.000Z,1018.7
2022-10-09T01:07:14.000Z,1018.7
2022-10-09T01:09:47.000Z,1018.7
2022-10-09T01:11:02.000Z,1018.7
2022-10-09T01:12:18.000Z,1018.7
2022-10-09T01:13:34.000Z,1018.7
2022-10-09T01:14:51.000Z,1018.7
2022-10-09T01:16:07.000Z,1018.7
2022-10-09T01:17:23.000Z,1018.7
2022-10-09T01:18:40.000Z,1018.7
2022-10-09T01:19:56.000Z,1018.7
2022-10-09T01:21:12.000Z,1018.8
2022-10-09T01:22:28.000Z,1018.7
2022-10-09T01:23:45.000Z,1018.7
2022-10-09T01:25:01.000Z,1018.7
2022-10-09T01:26:17.000Z,1018.7
2022-10-09T01:27:33.000Z,1018.7
2022-10-09T01:28:49.000Z,1018.7
2022-10-09T01:30:05.000Z,1018.7
2022-10-09T01:31:21.000Z,1018.7
2022-10-09T01:32:37.000Z,1018.7
2022-10-09T01:35:08.000Z,1018.7
2022-10-09T01:36:25.000Z,1018.6
2022-10-09T01:37:41.000Z,1018.6
2022-10-09T01:38:57.000Z,1018.6
2022-10-09T01:41:30.000Z,1018.6
2022-10-09T01:42:46.000Z,1018.6
2022-10-09T01:44:02.000Z,1018.6
2022-10-09T01:45:19.000Z,1018.6
2022-10-09T01:47:51.000Z,1018.6
2022-10-09T01:49:08.000Z,1018.6
2022-10-09T01:50:23.000Z,1018.6
2022-10-09T01:51:38.000Z,1018.6
2022-10-09T01:52:54.000Z,1018.5
2022-10-09T01:54:11.000Z,1018.5
2022-10-09T01:55:27.000Z,1018.5
2022-10-09T01:56:43.000Z,1018.5
2022-10-09T01:58:00.000Z,1018.5
2022-10-09T01:59:16.000Z,1018.5
2022-10-09T02:00:32.000Z,1018.4
2022-10-09T02:01:48.000Z,1018.4
2022-10-09T02:03:05.000Z,1018.5
2022-10-09T02:04:20.000Z,1018.5
2022-10-09T02:05:35.000Z,1018.5
2022-10-09T02:06:52.000Z,1018.5
2022-10-09T02:08:08.000Z,1018.4
2022-10-09T02:09:24.000Z,1018.5
2022-10-09T02:10:41.000Z,1018.4
2022-10-09T02:11:57.000Z,1018.4
2022-10-09T02:13:13.000Z,1018.4
2022-10-09T02:14:29.000Z,1018.4
2022-10-09T02:15:46.000Z,1018.4
2022-10-09T02:17:02.000Z,1018.2
2022-10-09T02:18:17.000Z,1018.4
2022-10-09T02:19:33.000Z,1018.4
2022-10-09T02:20:49.000Z,1018.4
2022-10-09T02:22:05.000Z,1018.4
2022-10-09T02:23:21.000Z,1018.4
2022-10-09T02:25:54.000Z,1018.4
2022-10-09T02:27:10.000Z,1018.4
2022-10-09T02:28:27.000Z,1018.4
2022-10-09T02:29:43.000Z,1018.4
2022-10-09T02:30:59.000Z,1018.4
2022-10-09T02:32:15.000Z,1018.4
2022-10-09T02:33:32.000Z,1018.4
2022-10-09T02:34:48.000Z,1018.4
2022-10-09T02:36:03.000Z,1018.4
2022-10-09T02:38:36.000Z,1018.4
2022-10-09T02:39:51.000Z,1018.3
2022-10-09T02:41:07.000Z,1018.3
2022-10-09T02:42:23.000Z,1018.3
2022-10-09T02:43:39.000Z,1018.3
2022-10-09T02:44:55.000Z,1018.3
2022-10-09T02:46:12.000Z,1018.3
2022-10-09T02:47:28.000Z,1018.3
2022-10-09T02:48:44.000Z,1018.3
2022-10-09T02:51:17.000Z,1018.3
2022-10-09T02:52:33.000Z,1018.3
2022-10-09T02:53:49.000Z,1018.3
2022-10-09T02:55:06.000Z,1018.3
2022-10-09T02:56:22.000Z,1018.3
2022-10-09T02:57:37.000Z,1018.3
2022-10-09T02:58:54.000Z,1018.4
2022-10-09T03:00:10.000Z,1018.4
2022-10-09T03:01:26.000Z,1018.3
2022-10-09T03:02:42.000Z,1018.4
2022-10-09T03:03:59.000Z,1018.3
2022-10-09T03:05:15.000Z,1018.4
2022-10-09T03:06:31.000Z,1018.4
2022-10-09T03:07:47.000Z,1018.4
2022-10-09T03:09:02.000Z,1018.4
2022-10-09T03:10:18.000Z,1018.4
2022-10-09T03:11:34.000Z,1018.4
2022-10-09T03:12:51.000Z,1018.4
2022-10-09T03:14:07.000Z,1018.4
2022-10-09T03:16:40.000Z,1018.3
2022-10-09T03:17:56.000Z,1018.3
2022-10-09T03:19:12.000Z,1018.3
2022-10-09T03:20:29.000Z,1018.3
2022-10-09T03:21:45.000Z,1018.3
2022-10-09T03:23:01.000Z,1018.4
2022-10-09T03:24:17.000Z,1018.3
2022-10-09T03:25:33.000Z,1018.3
2022-10-09T03:26:49.000Z,1018.4
2022-10-09T03:30:38.000Z,1018.4
2022-10-09T03:31:53.000Z,1018.3
2022-10-09T03:33:08.000Z,1018.3
2022-10-09T03:34:25.000Z,1018.3
2022-10-09T03:35:41.000Z,1018.4
2022-10-09T03:36:57.000Z,1018.3
2022-10-09T03:38:14.000Z,1018.4
2022-10-09T03:39:30.000Z,1018.3
2022-10-09T03:40:46.000Z,1018.4
2022-10-09T03:42:02.000Z,1018.4
2022-10-09T03:43:19.000Z,1018.4
2022-10-09T03:44:35.000Z,1018.3
2022-10-09T03:45:50.000Z,1018.4
2022-10-09T03:47:06.000Z,1018.4
2022-10-09T03:48:22.000Z,1018.4
2022-10-09T03:49:38.000Z,1018.4
2022-10-09T03:50:54.000Z,1018.4
2022-10-09T03:52:11.000Z,1018.4
2022-10-09T03:53:27.000Z,1018.4
2022-10-09T03:54:43.000Z,1018.4
2022-10-09T03:56:00.000Z,1018.4
2022-10-09T03:57:16.000Z,1018.4
2022-10-09T03:58:32.000Z,1018.4
2022-10-09T04:01:05.000Z,1018.4
2022-10-09T04:02:21.000Z,1018.4
2022-10-09T04:03:36.000Z,1018.4
2022-10-09T04:04:53.000Z,1018.5
2022-10-09T04:07:25.000Z,1018.4
2022-10-09T04:08:41.000Z,1018.4
2022-10-09T04:09:56.000Z,1018.4
2022-10-09T04:11:12.000Z,1018.5
2022-10-09T04:12:28.000Z,1018.4
2022-10-09T04:13:45.000Z,1018.4
2022-10-09T04:15:01.000Z,1018.4
2022-10-09T04:16:17.000Z,1018.4
2022-10-09T04:17:34.000Z,1018.4
2022-10-09T04:18:50.000Z,1018.4
2022-10-09T04:20:06.000Z,1018.4
2022-10-09T04:21:22.000Z,1018.4
2022-10-09T04:22:38.000Z,1018.4
2022-10-09T04:23:53.000Z,1018.4
2022-10-09T04:25:09.000Z,1018.4
2022-10-09T04:26:26.000Z,1018.4
2022-10-09T04:27:42.000Z,1018.4
2022-10-09T04:28:58.000Z,1018.4
2022-10-09T04:30:15.000Z,1018.3
2022-10-09T04:31:31.000Z,1018.3
2022-10-09T04:34:03.000Z,1018.3
2022-10-09T04:35:20.000Z,1018.4
2022-10-09T04:36:36.000Z,1018.3
2022-10-09T04:37:52.000Z,1018.4
2022-10-09T04:39:09.000Z,1018.4
2022-10-09T04:40:24.000Z,1018.4
2022-10-09T04:41:40.000Z,1018.4
2022-10-09T04:42:56.000Z,1018.4
2022-10-09T04:45:29.000Z,1018.4
2022-10-09T04:46:44.000Z,1018.4
2022-10-09T04:48:00.000Z,1018.4
2022-10-09T04:49:16.000Z,1018.5
2022-10-09T04:50:32.000Z,1018.5
2022-10-09T04:51:48.000Z,1018.5
2022-10-09T04:53:05.000Z,1018.5
2022-10-09T04:54:21.000Z,1018.5
2022-10-09T04:55:37.000Z,1018.5
2022-10-09T04:58:10.000Z,1018.5
2022-10-09T04:59:26.000Z,1018.5
2022-10-09T05:01:59.000Z,1018.5
2022-10-09T05:03:14.000Z,1018.5
2022-10-09T05:04:29.000Z,1018.5
2022-10-09T05:05:46.000Z,1018.5
2022-10-09T05:07:02.000Z,1018.5
2022-10-09T05:08:18.000Z,1018.5
2022-10-09T05:09:34.000Z,1018.5
2022-10-09T05:12:07.000Z,1018.5
2022-10-09T05:13:23.000Z,1018.4
2022-10-09T05:14:40.000Z,1018.4
2022-10-09T05:15:56.000Z,1018.4
2022-10-09T05:17:12.000Z,1018.4
2022-10-09T05:18:28.000Z,1018.4
2022-10-09T05:19:45.000Z,1018.4
2022-10-09T05:21:00.000Z,1018.4
2022-10-09T05:24:48.000Z,1018.4
2022-10-09T05:26:05.000Z,1018.4
2022-10-09T05:27:21.000Z,1018.4
2022-10-09T05:28:37.000Z,1018.4
2022-10-09T05:29:53.000Z,1018.4
2022-10-09T05:31:10.000Z,1018.4
2022-10-09T05:32:26.000Z,1018.4
2022-10-09T05:33:42.000Z,1018.4
2022-10-09T05:37:31.000Z,1018.5
2022-10-09T05:38:46.000Z,1018.4
2022-10-09T05:40:02.000Z,1018.4
2022-10-09T05:41:19.000Z,1018.4
2022-10-09T05:42:35.000Z,1018.4
2022-10-09T05:45:07.000Z,1018.4
2022-10-09T05:46:23.000Z,1018.4
2022-10-09T05:47:40.000Z,1018.4
2022-10-09T05:48:56.000Z,1018.4
2022-10-09T05:50:12.000Z,1018.5
2022-10-09T05:51:28.000Z,1018.5
2022-10-09T05:52:45.000Z,1018.5
2022-10-09T05:54:01.000Z,1018.5
2022-10-09T05:55:16.000Z,1018.6
2022-10-09T05:56:32.000Z,1018.5
2022-10-09T05:57:49.000Z,1018.5
2022-10-09T05:59:05.000Z,1018.5
2022-10-09T06:00:21.000Z,1018.5
2022-10-09T06:02:54.000Z,1018.5
2022-10-09T06:04:10.000Z,1018.5
2022-10-09T06:05:26.000Z,1018.5
2022-10-09T06:06:42.000Z,1018.5
2022-10-09T06:07:58.000Z,1018.6
2022-10-09T06:09:15.000Z,1018.6
2022-10-09T06:10:31.000Z,1018.6
2022-10-09T06:11:46.000Z,1018.5
2022-10-09T06:14:18.000Z,1018.5
2022-10-09T06:15:34.000Z,1018.5
2022-10-09T06:16:50.000Z,1018.5
2022-10-09T06:18:06.000Z,1018.5
2022-10-09T06:19:23.000Z,1018.4
2022-10-09T06:20:39.000Z,1018.5
2022-10-09T06:21:55.000Z,1018.5
2022-10-09T06:23:11.000Z,1018.5
2022-10-09T06:24:28.000Z,1018.5
2022-10-09T06:27:00.000Z,1018.6
2022-10-09T06:28:16.000Z,1018.6
2022-10-09T06:29:31.000Z,1018.6
2022-10-09T06:30:48.000Z,1018.5
2022-10-09T06:32:04.000Z,1018.5
2022-10-09T06:33:20.000Z,1018.6
2022-10-09T06:34:36.000Z,1018.6
2022-10-09T06:35:53.000Z,1018.6
2022-10-09T06:37:09.000Z,1018.6
2022-10-09T06:38:25.000Z,1018.5
2022-10-09T06:39:41.000Z,1018.6
2022-10-09T06:40:57.000Z,1018.6
2022-10-09T06:43:29.000Z,1018.6
2022-10-09T06:44:44.000Z,1018.6
2022-10-09T06:46:01.000Z,1018.6
2022-10-09T06:47:17.000Z,1018.6
2022-10-09T06:48:33.000Z,1018.6
2022-10-09T06:49:49.000Z,1018.7
2022-10-09T06:52:22.000Z,1018.6
2022-10-09T06:53:38.000Z,1018.7
2022-10-09T06:54:53.000Z,1018.7
2022-10-09T06:56:09.000Z,1018.6
2022-10-09T06:57:26.000Z,1018.6
2022-10-09T06:58:42.000Z,1018.6
2022-10-09T06:59:58.000Z,1018.6
2022-10-09T07:01:14.000Z,1018.5
2022-10-09T07:02:31.000Z,1018.6
2022-10-09T07:05:03.000Z,1018.6
2022-10-09T07:06:18.000Z,1018.6
2022-10-09T07:07:34.000Z,1018.6
2022-10-09T07:08:50.000Z,1018.5
2022-10-09T07:10:06.000Z,1018.5
2022-10-09T07:11:22.000Z,1018.6
2022-10-09T07:12:39.000Z,1018.5
2022-10-09T07:13:55.000Z,1018.6
2022-10-09T07:15:11.000Z,1018.6
2022-10-09T07:16:27.000Z,1018.6
2022-10-09T07:17:43.000Z,1018.5
2022-10-09T07:19:00.000Z,1018.6
2022-10-09T07:20:16.000Z,1018.6
2022-10-09T07:21:31.000Z,1018.6
2022-10-09T07:22:46.000Z,1018.6
2022-10-09T07:24:03.000Z,1018.6
2022-10-09T07:25:19.000Z,1018.7
2022-10-09T07:26:35.000Z,1018.7
2022-10-09T07:27:51.000Z,1018.7
2022-10-09T07:29:08.000Z,1018.7
2022-10-09T07:30:24.000Z,1018.7
2022-10-09T07:31:40.000Z,1018.7
2022-10-09T07:32:56.000Z,1018.7
2022-10-09T07:34:13.000Z,1018.7
2022-10-09T07:35:29.000Z,1018.7
2022-10-09T07:36:45.000Z,1018.7
2022-10-09T07:38:01.000Z,1018.8
2022-10-09T07:39:16.000Z,1018.8
2022-10-09T07:40:33.000Z,1018.7
2022-10-09T07:43:05.000Z,1018.7
2022-10-09T07:44:21.000Z,1018.7
2022-10-09T07:45:38.000Z,1018.7
2022-10-09T07:46:54.000Z,1018.7
2022-10-09T07:48:10.000Z,1018.7
2022-10-09T07:49:26.000Z,1018.7
2022-10-09T07:50:43.000Z,1018.7
2022-10-09T07:51:59.000Z,1018.7
2022-10-09T07:53:15.000Z,1018.8
2022-10-09T07:55:48.000Z,1018.7
2022-10-09T07:57:03.000Z,1018.7
2022-10-09T07:58:19.000Z,1018.7
2022-10-09T07:59:35.000Z,1018.7
2022-10-09T08:00:51.000Z,1018.7
2022-10-09T08:02:08.000Z,1018.8
2022-10-09T08:03:24.000Z,1018.7
2022-10-09T08:04:40.000Z,1018.7
2022-10-09T08:05:56.000Z,1018.7
2022-10-09T08:08:29.000Z,1018.7
2022-10-09T08:09:44.000Z,1018.7
2022-10-09T08:10:59.000Z,1018.6
2022-10-09T08:12:16.000Z,1018.6
2022-10-09T08:13:32.000Z,1018.6
2022-10-09T08:14:48.000Z,1018.7
2022-10-09T08:16:04.000Z,1018.6
2022-10-09T08:17:21.000Z,1018.5
2022-10-09T08:18:37.000Z,1018.5
2022-10-09T08:21:09.000Z,1018.4
2022-10-09T08:22:25.000Z,1018.4
2022-10-09T08:23:42.000Z,1018.4
2022-10-09T08:24:58.000Z,1018.4
2022-10-09T08:26:14.000Z,1018.4
2022-10-09T08:27:29.000Z,1018.4
2022-10-09T08:28:46.000Z,1018.4
2022-10-09T08:30:02.000Z,1018.3
2022-10-09T08:31:18.000Z,1018.3
2022-10-09T08:32:34.000Z,1018.3
2022-10-09T08:33:51.000Z,1018.3
2022-10-09T08:35:07.000Z,1018.3
2022-10-09T08:36:23.000Z,1018.2
2022-10-09T08:37:38.000Z,1018.2
2022-10-09T08:38:54.000Z,1018.3
2022-10-09T08:40:10.000Z,1018.3
2022-10-09T08:41:26.000Z,1018.3
2022-10-09T08:42:42.000Z,1018.3
2022-10-09T08:43:59.000Z,1018.2
2022-10-09T08:45:15.000Z,1018.3
2022-10-09T08:46:31.000Z,1018.2
2022-10-09T08:47:47.000Z,1018.2
2022-10-09T08:49:03.000Z,1018.2
2022-10-09T08:50:20.000Z,1018.2
2022-10-09T08:51:36.000Z,1018.2
2022-10-09T08:52:52.000Z,1018.2
2022-10-09T08:54:08.000Z,1018.1
2022-10-09T08:55:24.000Z,1018.1
2022-10-09T08:56:40.000Z,1018.1
2022-10-09T08:59:12.000Z,1018.1
2022-10-09T09:00:29.000Z,1018.1
2022-10-09T09:01:45.000Z,1018.1
2022-10-09T09:03:01.000Z,1018.1
2022-10-09T09:04:17.000Z,1018.1
2022-10-09T09:05:33.000Z,1018.1
2022-10-09T09:06:50.000Z,1018
2022-10-09T09:08:06.000Z,1018
2022-10-09T09:11:55.000Z,1018
2022-10-09T09:13:10.000Z,1017.9
2022-10-09T09:14:25.000Z,1017.9
2022-10-09T09:15:41.000Z,1018
2022-10-09T09:16:58.000Z,1017.9
2022-10-09T09:18:14.000Z,1017.9
2022-10-09T09:19:30.000Z,1017.9
2022-10-09T09:20:46.000Z,1017.9
2022-10-09T09:22:03.000Z,1017.9
2022-10-09T09:23:19.000Z,1017.9
2022-10-09T09:24:35.000Z,1017.9
2022-10-09T09:25:51.000Z,1017.9
2022-10-09T09:27:07.000Z,1017.9
2022-10-09T09:29:38.000Z,1017.8
2022-10-09T09:30:54.000Z,1017.8
2022-10-09T09:32:10.000Z,1017.8
2022-10-09T09:33:27.000Z,1017.8
2022-10-09T09:34:43.000Z,1017.8
2022-10-09T09:37:15.000Z,1017.7
2022-10-09T09:38:32.000Z,1017.7
2022-10-09T09:39:48.000Z,1017.6
2022-10-09T09:41:04.000Z,1017.6
2022-10-09T09:42:20.000Z,1017.7
2022-10-09T09:43:37.000Z,1017.6
2022-10-09T09:44:52.000Z,1017.6
2022-10-09T09:46:08.000Z,1017.6
2022-10-09T09:47:24.000Z,1017.6
2022-10-09T09:49:57.000Z,1017.5
2022-10-09T09:51:12.000Z,1017.5
2022-10-09T09:52:27.000Z,1017.4
2022-10-09T09:53:43.000Z,1017.4
2022-10-09T09:55:00.000Z,1017.4
2022-10-09T09:56:16.000Z,1017.3
2022-10-09T09:57:32.000Z,1017.3
2022-10-09T09:58:48.000Z,1017.3
2022-10-09T10:00:05.000Z,1017.3
2022-10-09T10:01:21.000Z,1017.2
2022-10-09T10:02:37.000Z,1017.2
2022-10-09T10:03:53.000Z,1017.2
2022-10-09T10:05:09.000Z,1017.2
2022-10-09T10:06:24.000Z,1017.2
2022-10-09T10:07:40.000Z,1017.1
2022-10-09T10:08:56.000Z,1017.1
2022-10-09T10:10:13.000Z,1017
2022-10-09T10:11:29.000Z,1017
2022-10-09T10:12:45.000Z,1017.1
2022-10-09T10:15:18.000Z,1016.9
2022-10-09T10:16:34.000Z,1016.9
2022-10-09T10:17:50.000Z,1016.9
2022-10-09T10:19:06.000Z,1016.8
2022-10-09T10:21:39.000Z,1016.8
2022-10-09T10:22:54.000Z,1016.7
2022-10-09T10:24:09.000Z,1016.8
2022-10-09T10:25:25.000Z,1016.9
2022-10-09T10:26:42.000Z,1016.9
2022-10-09T10:27:58.000Z,1016.9
2022-10-09T10:29:14.000Z,1016.8
2022-10-09T10:31:47.000Z,1016.9
2022-10-09T10:33:03.000Z,1016.7
2022-10-09T10:34:19.000Z,1016.7
2022-10-09T10:35:35.000Z,1016.8
2022-10-09T10:36:52.000Z,1016.7
2022-10-09T10:38:08.000Z,1016.7
2022-10-09T10:39:24.000Z,1016.7
2022-10-09T10:40:39.000Z,1016.7
2022-10-09T10:41:55.000Z,1016.8
2022-10-09T10:43:12.000Z,1016.8
2022-10-09T10:44:28.000Z,1016.7
2022-10-09T10:45:44.000Z,1016.7
2022-10-09T10:47:00.000Z,1016.8
2022-10-09T10:48:17.000Z,1016.7
2022-10-09T10:49:33.000Z,1016.7
2022-10-09T10:53:21.000Z,1016.6
2022-10-09T10:54:36.000Z,1016.6
2022-10-09T10:55:51.000Z,1016.6
2022-10-09T10:57:07.000Z,1016.5
2022-10-09T10:58:24.000Z,1016.5
2022-10-09T10:59:40.000Z,1016.5
2022-10-09T11:00:56.000Z,1016.4
2022-10-09T11:02:12.000Z,1016.5
2022-10-09T11:03:29.000Z,1016.4
2022-10-09T11:06:01.000Z,1016.4
2022-10-09T11:07:17.000Z,1016.4
2022-10-09T11:08:33.000Z,1016.4
2022-10-09T11:09:49.000Z,1016.3
2022-10-09T11:11:05.000Z,1016.3
2022-10-09T11:12:21.000Z,1016.3
2022-10-09T11:13:37.000Z,1016.3
2022-10-09T11:14:54.000Z,1016.3
2022-10-09T11:18:42.000Z,1016.3
2022-10-09T11:19:59.000Z,1015.9
2022-10-09T11:21:15.000Z,1015.9
2022-10-09T11:22:31.000Z,1015.8
2022-10-09T11:23:47.000Z,1015.8
2022-10-09T11:25:04.000Z,1015.7
2022-10-09T11:26:19.000Z,1015.8
2022-10-09T11:27:35.000Z,1015.7
2022-10-09T11:28:51.000Z,1015.8
2022-10-09T11:31:24.000Z,1015.7
2022-10-09T11:32:40.000Z,1015.7
2022-10-09T11:33:56.000Z,1015.7
2022-10-09T11:35:12.000Z,1015.7
2022-10-09T11:36:29.000Z,1015.7
2022-10-09T11:37:45.000Z,1015.7
2022-10-09T11:39:01.000Z,1015.7
2022-10-09T11:40:17.000Z,1015.6
2022-10-09T11:41:34.000Z,1015.6
2022-10-09T11:44:05.000Z,1015.6
2022-10-09T11:45:21.000Z,1015.6
2022-10-09T11:46:38.000Z,1015.6
2022-10-09T11:47:54.000Z,1015.5
2022-10-09T11:49:10.000Z,1015.5
2022-10-09T11:50:26.000Z,1015.5
2022-10-09T11:51:42.000Z,1015.5
2022-10-09T11:52:59.000Z,1015.5
2022-10-09T11:54:15.000Z,1015.5
2022-10-09T11:55:31.000Z,1015.6
2022-10-09T11:56:47.000Z,1015.6
2022-10-09T11:58:03.000Z,1015.6
2022-10-09T11:59:18.000Z,1015.5
2022-10-09T12:00:34.000Z,1015.5
2022-10-09T12:01:50.000Z,1015.6
2022-10-09T12:03:07.000Z,1015.5
2022-10-09T12:04:23.000Z,1015.5
2022-10-09T12:05:39.000Z,1015.4
2022-10-09T12:06:55.000Z,1015.4
2022-10-09T12:08:12.000Z,1015.3
2022-10-09T12:09:28.000Z,1015.3
2022-10-09T12:10:44.000Z,1015.3
2022-10-09T12:11:59.000Z,1015.4
2022-10-09T12:13:15.000Z,1015.3
2022-10-09T12:15:47.000Z,1015.2
2022-10-09T12:17:03.000Z,1015.2
2022-10-09T12:18:19.000Z,1015.2
2022-10-09T12:19:36.000Z,1015.1
2022-10-09T12:22:08.000Z,1015.1
2022-10-09T12:23:24.000Z,1015.1
2022-10-09T12:24:41.000Z,1015.1
2022-10-09T12:25:57.000Z,1015
2022-10-09T12:27:13.000Z,1015
2022-10-09T12:29:45.000Z,1014.9
2022-10-09T12:31:00.000Z,1015
2022-10-09T12:32:15.000Z,1015
2022-10-09T12:33:31.000Z,1014.9
2022-10-09T12:34:48.000Z,1014.9
2022-10-09T12:36:04.000Z,1014.9
2022-10-09T12:37:20.000Z,1014.8
2022-10-09T12:38:36.000Z,1014.9
2022-10-09T12:39:53.000Z,1014.8
2022-10-09T12:41:09.000Z,1014.7
2022-10-09T12:42:25.000Z,1014.7
2022-10-09T12:43:41.000Z,1014.6
2022-10-09T12:46:13.000Z,1014.8
2022-10-09T12:47:28.000Z,1014.7
2022-10-09T12:48:44.000Z,1014.7
2022-10-09T12:50:00.000Z,1014.8
2022-10-09T12:51:17.000Z,1014.7
2022-10-09T12:52:33.000Z,1014.7
2022-10-09T12:53:49.000Z,1014.7
2022-10-09T12:55:05.000Z,1014.7
2022-10-09T12:56:22.000Z,1014.6
2022-10-09T12:57:38.000Z,1014.5
2022-10-09T13:00:09.000Z,1014.5
2022-10-09T13:01:25.000Z,1014.4
2022-10-09T13:02:41.000Z,1014.4
2022-10-09T13:03:57.000Z,1014.4
2022-10-09T13:05:13.000Z,1014.3
2022-10-09T13:06:30.000Z,1014.3
2022-10-09T13:07:46.000Z,1014.4
2022-10-09T13:09:02.000Z,1014.3
2022-10-09T13:10:18.000Z,1014.3
2022-10-09T13:11:34.000Z,1014.3
2022-10-09T13:12:50.000Z,1014.2
2022-10-09T13:14:05.000Z,1014.2
2022-10-09T13:15:21.000Z,1014.2
2022-10-09T13:16:37.000Z,1014.3
2022-10-09T13:17:54.000Z,1014.3
2022-10-09T13:19:10.000Z,1014.2
2022-10-09T13:20:26.000Z,1014.2
2022-10-09T13:21:42.000Z,1014.1
2022-10-09T13:22:59.000Z,1014.1
2022-10-09T13:24:15.000Z,1014.1
2022-10-09T13:25:31.000Z,1014
2022-10-09T13:26:47.000Z,1014
2022-10-09T13:28:04.000Z,1013.9
2022-10-09T13:29:20.000Z,1013.9
2022-10-09T13:30:35.000Z,1013.9
2022-10-09T13:31:51.000Z,1013.9
2022-10-09T13:33:07.000Z,1014
2022-10-09T13:34:24.000Z,1013.8
2022-10-09T13:35:40.000Z,1013.7
2022-10-09T13:36:56.000Z,1013.6
2022-10-09T13:39:29.000Z,1013.7
2022-10-09T13:40:45.000Z,1013.6
2022-10-09T13:42:01.000Z,1013.6
2022-10-09T13:43:17.000Z,1013.6
2022-10-09T13:44:34.000Z,1013.6
2022-10-09T13:45:50.000Z,1013.6
2022-10-09T13:47:05.000Z,1013.6
2022-10-09T13:48:21.000Z,1013.5
2022-10-09T13:50:54.000Z,1013.5
2022-10-09T13:52:10.000Z,1013.5
2022-10-09T13:53:26.000Z,1013.5
2022-10-09T13:54:42.000Z,1013.5
2022-10-09T13:55:59.000Z,1013.5
2022-10-09T13:57:15.000Z,1013.5
2022-10-09T13:58:31.000Z,1013.5
2022-10-09T13:59:47.000Z,1013.5
2022-10-09T14:01:04.000Z,1013.5
2022-10-09T14:02:20.000Z,1013.4
2022-10-09T14:03:35.000Z,1013.5
2022-10-09T14:04:51.000Z,1013.4
2022-10-09T14:06:08.000Z,1013.4
2022-10-09T14:07:24.000Z,1013.4
2022-10-09T14:08:40.000Z,1013.4
2022-10-09T14:09:56.000Z,1013.4
2022-10-09T14:11:13.000Z,1013.4
2022-10-09T14:12:29.000Z,1013.3
2022-10-09T14:13:45.000Z,1013.4
2022-10-09T14:15:01.000Z,1013.3
2022-10-09T14:16:17.000Z,1013.5
2022-10-09T14:17:34.000Z,1013.4
2022-10-09T14:18:50.000Z,1013.3
2022-10-09T14:20:05.000Z,1013.3
2022-10-09T14:22:38.000Z,1013.2
2022-10-09T14:23:54.000Z,1013.3
2022-10-09T14:25:10.000Z,1013.2
2022-10-09T14:26:26.000Z,1013.2
2022-10-09T14:27:43.000Z,1013.2
2022-10-09T14:28:59.000Z,1013.2
2022-10-09T14:30:15.000Z,1013.1
2022-10-09T14:31:31.000Z,1013.1
2022-10-09T14:32:47.000Z,1013.1
2022-10-09T14:34:04.000Z,1013.1
2022-10-09T14:35:20.000Z,1013
2022-10-09T14:36:35.000Z,1013.1
2022-10-09T14:37:51.000Z,1013
2022-10-09T14:39:08.000Z,1013.1
2022-10-09T14:41:40.000Z,1013
2022-10-09T14:42:56.000Z,1013
2022-10-09T14:44:13.000Z,1013
2022-10-09T14:45:29.000Z,1013
2022-10-09T14:46:45.000Z,1012.9
2022-10-09T14:48:01.000Z,1012.9
2022-10-09T14:49:18.000Z,1012.8
2022-10-09T14:50:34.000Z,1012.9
2022-10-09T14:51:50.000Z,1012.8
2022-10-09T14:53:05.000Z,1012.8
2022-10-09T14:54:21.000Z,1012.7
2022-10-09T14:55:38.000Z,1012.8
2022-10-09T14:56:54.000Z,1012.7
2022-10-09T14:58:10.000Z,1012.7
2022-10-09T14:59:26.000Z,1012.7
2022-10-09T15:00:43.000Z,1012.7
2022-10-09T15:01:59.000Z,1012.7
2022-10-09T15:03:15.000Z,1012.7
2022-10-09T15:04:31.000Z,1012.7
2022-10-09T15:05:48.000Z,1012.7
2022-10-09T15:07:04.000Z,1012.6
2022-10-09T15:08:20.000Z,1012.7
2022-10-09T15:09:35.000Z,1012.7
2022-10-09T15:10:52.000Z,1012.7
2022-10-09T15:12:08.000Z,1012.6
2022-10-09T15:13:24.000Z,1012.6
2022-10-09T15:14:40.000Z,1012.6
2022-10-09T15:15:56.000Z,1012.6
2022-10-09T15:17:13.000Z,1012.6
2022-10-09T15:19:45.000Z,1012.5
2022-10-09T15:21:01.000Z,1012.5
2022-10-09T15:22:18.000Z,1012.5
2022-10-09T15:23:34.000Z,1012.5
2022-10-09T15:24:50.000Z,1012.5
2022-10-09T15:26:05.000Z,1012.4
2022-10-09T15:27:22.000Z,1012.4
2022-10-09T15:28:38.000Z,1012.4
2022-10-09T15:29:54.000Z,1012.4
2022-10-09T15:31:10.000Z,1012.3
2022-10-09T15:32:27.000Z,1012.3
2022-10-09T15:33:43.000Z,1012.4
2022-10-09T15:34:59.000Z,1012.3
2022-10-09T15:36:15.000Z,1012.2
2022-10-09T15:37:31.000Z,1012.2
2022-10-09T15:38:48.000Z,1012.2
2022-10-09T15:40:04.000Z,1012.1
2022-10-09T15:41:20.000Z,1012.1
2022-10-09T15:42:35.000Z,1012.1
2022-10-09T15:43:52.000Z,1012.1
2022-10-09T15:45:08.000Z,1012.1
2022-10-09T15:46:24.000Z,1012.1
2022-10-09T15:47:40.000Z,1012.1
2022-10-09T15:48:57.000Z,1012.1
2022-10-09T15:50:13.000Z,1012.1
2022-10-09T15:51:29.000Z,1012.1
2022-10-09T15:52:45.000Z,1012.1
2022-10-09T15:54:01.000Z,1012
2022-10-09T15:55:18.000Z,1012
2022-10-09T15:56:34.000Z,1012
2022-10-09T16:00:23.000Z,1012
2022-10-09T16:01:38.000Z,1012
2022-10-09T16:02:54.000Z,1012
2022-10-09T16:04:10.000Z,1011.9
2022-10-09T16:05:27.000Z,1011.8
2022-10-09T16:06:43.000Z,1011.9
2022-10-09T16:07:59.000Z,1011.9
2022-10-09T16:10:32.000Z,1011.9
2022-10-09T16:11:47.000Z,1011.9
2022-10-09T16:13:02.000Z,1011.9
2022-10-09T16:14:18.000Z,1011.9
2022-10-09T16:15:35.000Z,1011.9
2022-10-09T16:16:51.000Z,1011.8
2022-10-09T16:18:07.000Z,1011.8
2022-10-09T16:19:23.000Z,1011.8
2022-10-09T16:20:39.000Z,1011.8
2022-10-09T16:21:56.000Z,1011.8
2022-10-09T16:23:12.000Z,1011.8
2022-10-09T16:24:28.000Z,1011.8
2022-10-09T16:25:43.000Z,1011.8
2022-10-09T16:26:59.000Z,1011.8
2022-10-09T16:28:15.000Z,1011.8
2022-10-09T16:29:31.000Z,1011.8
2022-10-09T16:30:47.000Z,1011.8
2022-10-09T16:32:04.000Z,1011.7
2022-10-09T16:33:20.000Z,1011.7
2022-10-09T16:34:36.000Z,1011.7
2022-10-09T16:35:52.000Z,1011.6
2022-10-09T16:37:09.000Z,1011.7
2022-10-09T16:38:25.000Z,1011.7
2022-10-09T16:39:41.000Z,1011.7
2022-10-09T16:40:57.000Z,1011.6
2022-10-09T16:42:13.000Z,1011.7
2022-10-09T16:43:29.000Z,1011.7
2022-10-09T16:44:45.000Z,1011.6
2022-10-09T16:46:01.000Z,1011.7
2022-10-09T16:48:34.000Z,1011.7
2022-10-09T16:49:50.000Z,1011.6
2022-10-09T16:51:06.000Z,1011.6
2022-10-09T16:52:22.000Z,1011.7
2022-10-09T16:53:39.000Z,1011.7
2022-10-09T16:54:55.000Z,1011.6
2022-10-09T16:56:11.000Z,1011.6
2022-10-09T16:57:27.000Z,1011.6
2022-10-09T16:58:44.000Z,1011.6
2022-10-09T16:59:59.000Z,1011.6
2022-10-09T17:01:15.000Z,1011.6
2022-10-09T17:02:31.000Z,1011.6
2022-10-09T17:03:47.000Z,1011.6
2022-10-09T17:05:04.000Z,1011.6
2022-10-09T17:06:20.000Z,1011.7
2022-10-09T17:07:36.000Z,1011.7
2022-10-09T17:08:52.000Z,1011.7
2022-10-09T17:10:09.000Z,1011.7
2022-10-09T17:11:25.000Z,1011.7
2022-10-09T17:12:41.000Z,1011.6
2022-10-09T17:13:57.000Z,1011.6
2022-10-09T17:15:14.000Z,1011.7
2022-10-09T17:16:29.000Z,1011.6
2022-10-09T17:17:45.000Z,1011.6
2022-10-09T17:19:01.000Z,1011.6
2022-10-09T17:20:18.000Z,1011.6